الصفحة الرئيسية
METAR-TAF:

METAR-TAF

مطار :

مطار بكين العاصمة الدولي

بكين, جمهورية الصين الشعبية

دائرة عرض: 39-56N, خط طول: 116-17E, ارتفاع: 55 متر

مراقبة الطقس الحالي

تاريخ ووقت الإصدار 24 دقيقة قبل الساعة 08:00UTC
ريح 14 عقدة من الشمال/الشمال الغربي, الاتجاه يتراوح بين الشمال الغربي و الشمال
درجة الحرارة 27°درجة مئوية
الرطوبة 16%
ضغط 1007 hPa
الرؤية 10 كم أو أكثر
الغيوم لا تقل 1500 م ولا وجود لمزنة ركامية السحاب الأسود

METAR: ZBAA 200800Z 34007MPS 310V010 CAVOK 27/M01 Q1007 NOSIG

زمن: 16:24 (08:24 UTC)

توقعات

تاريخ ووقت الإصدار 4ساعات و 9 دقيقة قبل الساعة 04:15UTC
التوقعات صالحة من20 الساعة 06 UTC إلى 21 الساعة 06 UTC
ريح 17 عقدة من الشمال الغربي تتزايد حتى 27 عقدة
الرؤية 10 كم أو أكثر
الغيوم لا تقل 1500 م ولا وجود لمزنة ركامية السحاب الأسود
أصبح
من 20 الساعة 10 UTC إلى 20 الساعة 11 UTC
ريح 8 عقدة من الغرب/الجنوب الغربي

TAF: ZBAA 200415Z 2006/2106 32009G14MPS CAVOK TX26/2007Z TN13/2021Z BECMG 2010/2011 25004MPS

أرصاد الطقس والتوقعات من أكثر من 4000 مطار (تقارير الطقس للمطار METAR والتنبؤ بالطقس بالمطارTAF).

المحطات المتاحة هي النقط الصفراء والحمراء على الخريطة.

حرك المؤشر فوق النقطة لمعرفة اسم المحطة.

ثم انقر لمعرفة أرصاد وتوقعات الطقس.

لتغيير الخارطة: اضغط على الأزرار الخضراء مع رمز الصليب الأسود للتكبير. على الزر الأخضر مع شرطة للتصغير، أو على الأسهم الخضراء للخرائط المجاورة.


METAR-TAF: